Time;durP1;ratioP1;P1;durP2;ratioP2;P2;SDS_P1;SDS_P2;PMS_P1;PMS_P2;Temp;Humidity;BMP_temperature;BMP_pressure;BME280_temperature;BME280_humidity;BME280_pressure;Samples;Min_cycle;Max_cycle;Signal;HPM_P1;HPM_P2
2023/03/02 00:02:05;;;;;;;106.78;51.85;;;;;;;-0.88;78.78;100582.06;5052244;28;20029;-77
2023/03/02 00:04:35;;;;;;;93.43;46.83;;;;;;;-1.17;79.58;100551.78;5051592;28;20021;-76
2023/03/02 00:07:04;;;;;;;106.15;48.97;;;;;;;-1.18;79.98;100554.28;5052251;28;20311;-77
2023/03/02 00:09:31;;;;;;;88.63;41.38;;;;;;;-1.17;80.92;100559.44;5052394;28;20041;-76
2023/03/02 00:11:56;;;;;;;106.25;47.03;;;;;;;-1.14;80.47;100566.28;5051961;28;20033;-76
2023/03/02 00:14:22;;;;;;;94.72;45.33;;;;;;;-1.27;81.43;100545.66;5052088;28;20025;-76
2023/03/02 00:16:47;;;;;;;90.13;43.00;;;;;;;-1.27;81.77;100549.91;5051997;28;20481;-76
2023/03/02 00:19:13;;;;;;;102.72;47.00;;;;;;;-1.42;81.76;100519.88;5052241;28;20041;-77
2023/03/02 00:21:39;;;;;;;141.85;60.22;;;;;;;-1.11;81.58;100577.44;5051485;28;20083;-76
2023/03/02 00:24:05;;;;;;;147.40;61.20;;;;;;;-1.30;81.49;100537.97;5051516;28;20539;-77
2023/03/02 00:26:34;;;;;;;144.27;62.45;;;;;;;-1.12;81.75;100577.41;5052063;28;20029;-76
2023/03/02 00:29:00;;;;;;;150.48;60.88;;;;;;;-1.14;81.68;100573.97;5051739;28;20059;-76
2023/03/02 00:31:25;;;;;;;130.13;56.88;;;;;;;-1.29;81.76;100537.13;5051933;28;20108;-76
2023/03/02 00:33:53;;;;;;;98.00;45.10;;;;;;;-1.31;81.51;100540.47;5051581;28;20036;-76
2023/03/02 00:36:20;;;;;;;85.25;38.15;;;;;;;-1.14;81.09;100563.72;5052055;28;20024;-76
2023/03/02 00:38:45;;;;;;;74.70;39.03;;;;;;;-1.20;81.43;100558.53;5052152;28;20025;-76
2023/03/02 00:41:12;;;;;;;73.82;35.30;;;;;;;-1.30;81.39;100532.84;5051619;28;20033;-77
2023/03/02 00:43:38;;;;;;;61.45;33.22;;;;;;;-1.27;81.01;100537.13;5051843;28;20036;-77
2023/03/02 00:46:21;;;;;;;49.92;26.92;;;;;;;-1.10;80.84;100568.06;5051522;28;20213;-76
2023/03/02 00:48:47;;;;;;;58.35;29.45;;;;;;;-1.09;80.77;100564.69;5051937;28;20031;-76
2023/03/02 00:51:13;;;;;;;52.47;28.60;;;;;;;-1.14;80.32;100553.50;5051529;28;20028;-76
2023/03/02 00:53:39;;;;;;;58.28;30.00;;;;;;;-1.10;80.11;100552.72;5051572;28;20121;-76
2023/03/02 00:56:05;;;;;;;53.00;26.77;;;;;;;-1.24;79.87;100524.41;5051433;28;20033;-76
2023/03/02 00:58:31;;;;;;;57.80;29.55;;;;;;;-1.11;80.04;100553.56;5051776;28;20059;-76
2023/03/02 01:01:03;;;;;;;55.88;27.08;;;;;;;-1.22;80.56;100543.19;5051556;28;20036;-76
2023/03/02 01:03:28;;;;;;;84.88;36.08;;;;;;;-1.32;80.22;100525.97;5051856;28;20033;-77
2023/03/02 01:05:55;;;;;;;106.30;43.60;;;;;;;-1.21;80.62;100544.03;5051327;28;20116;-76
2023/03/02 01:08:22;;;;;;;120.15;51.10;;;;;;;-1.21;80.75;100544.91;5051615;28;20071;-76
2023/03/02 01:10:48;;;;;;;179.13;81.32;;;;;;;-1.32;81.19;100519.16;5052087;28;20083;-76
2023/03/02 01:13:13;;;;;;;228.93;99.03;;;;;;;-1.38;80.76;100510.56;5051348;28;20408;-76
2023/03/02 01:15:38;;;;;;;177.85;80.72;;;;;;;-1.45;81.48;100512.16;5052848;28;20472;-76
2023/03/02 01:18:04;;;;;;;178.80;81.63;;;;;;;-1.80;81.57;100483.50;5055312;28;20129;-76
2023/03/02 01:20:29;;;;;;;161.43;74.45;;;;;;;-1.53;81.65;100534.16;5055725;28;20057;-76
2023/03/02 01:22:55;;;;;;;154.93;71.05;;;;;;;-1.67;81.71;100505.00;5055230;28;20033;-76
2023/03/02 01:25:20;;;;;;;150.85;68.07;;;;;;;-1.52;81.02;100534.19;5055252;28;20467;-77
2023/03/02 01:27:45;;;;;;;140.10;65.00;;;;;;;-1.66;81.15;100515.22;5055330;28;20033;-76
2023/03/02 01:30:14;;;;;;;126.32;57.50;;;;;;;-1.54;81.75;100529.91;5054989;28;20111;-76
2023/03/02 01:32:39;;;;;;;141.60;64.95;;;;;;;-1.55;81.77;100526.47;5055173;28;20036;-76
2023/03/02 01:35:05;;;;;;;131.52;63.08;;;;;;;-1.67;82.17;100505.84;5054873;28;20021;-76
2023/03/02 01:37:30;;;;;;;123.05;57.00;;;;;;;-1.65;82.72;100508.41;5055285;28;20032;-76
2023/03/02 01:39:56;;;;;;;122.75;56.85;;;;;;;-1.59;82.87;100523.84;5055034;28;20032;-77
2023/03/02 01:42:21;;;;;;;126.05;54.78;;;;;;;-1.83;83.13;100479.19;5055177;28;20400;-76
2023/03/02 01:44:55;;;;;;;125.82;55.78;;;;;;;-1.67;83.14;100513.50;5054972;28;20029;-76
2023/03/02 01:47:32;;;;;;;117.75;52.55;;;;;;;-1.67;83.67;100518.63;5055050;28;20024;-76
2023/03/02 01:50:02;;;;;;;97.05;47.33;;;;;;;-1.76;83.30;100500.59;5054772;28;20358;-77
2023/03/02 01:52:30;;;;;;;92.38;42.97;;;;;;;-1.77;84.20;100498.84;5054870;28;20032;-76
2023/03/02 01:55:00;;;;;;;84.20;41.72;;;;;;;-1.87;83.88;100477.41;5054856;28;20039;-76
2023/03/02 01:57:30;;;;;;;66.57;36.13;;;;;;;-2.03;83.61;100443.09;5055006;28;20107;-76
2023/03/02 02:00:00;;;;;;;78.25;36.40;;;;;;;-1.69;83.03;100489.63;5054484;28;20029;-77
2023/03/02 02:02:26;;;;;;;86.28;41.17;;;;;;;-1.91;83.49;100465.44;5054909;28;20029;-76
2023/03/02 02:04:53;;;;;;;82.88;40.47;;;;;;;-1.71;83.64;100490.44;5054668;28;20036;-76
2023/03/02 02:07:18;;;;;;;111.25;50.85;;;;;;;-1.86;83.93;100461.25;5054488;28;20037;-76
2023/03/02 02:09:50;;;;;;;113.35;50.72;;;;;;;-1.87;84.42;100466.34;5054494;28;20556;-76
2023/03/02 02:12:18;;;;;;;90.70;45.10;;;;;;;-1.72;84.58;100489.59;5054250;28;20029;-77
2023/03/02 02:14:44;;;;;;;89.78;39.80;;;;;;;-1.91;84.76;100445.00;5054719;28;20100;-76
2023/03/02 02:17:11;;;;;;;74.60;38.90;;;;;;;-1.69;85.17;100484.50;5054259;28;20055;-76
2023/03/02 02:20:14;;;;;;;73.20;38.17;;;;;;;-1.69;85.27;100484.50;5054456;28;20025;-76
2023/03/02 02:22:56;;;;;;;74.80;39.28;;;;;;;-1.88;85.68;100444.19;5054336;28;20358;-76
2023/03/02 02:25:31;;;;;;;;;;;;;;;-1.75;85.25;100481.88;5054658;28;20049;-76
2023/03/02 02:27:57;;;;;;;78.18;36.88;;;;;;;-1.89;85.25;100453.56;5053008;28;19920;-76
2023/03/02 02:30:24;;;;;;;71.40;36.88;;;;;;;-1.74;84.70;100478.47;5054128;28;20412;-76
2023/03/02 02:32:52;;;;;;;72.65;38.42;;;;;;;-1.76;84.30;100475.91;5052988;28;20392;-77
2023/03/02 02:35:23;;;;;;;68.47;36.55;;;;;;;-1.88;84.27;100446.75;5053994;28;20104;-76
2023/03/02 02:37:55;;;;;;;61.17;31.90;;;;;;;-1.79;84.03;100470.75;5054145;28;20028;-76
2023/03/02 02:40:39;;;;;;;57.63;29.20;;;;;;;-1.92;83.22;100453.50;5054388;28;20299;-76
2023/03/02 02:43:05;;;;;;;64.25;31.73;;;;;;;-1.91;83.21;100457.75;5053602;28;20035;-77
2023/03/02 02:45:31;;;;;;;64.22;35.00;;;;;;;-1.81;82.65;100466.47;5053903;28;20079;-76
2023/03/02 02:47:57;;;;;;;62.95;32.63;;;;;;;-1.77;83.22;100481.84;5053772;28;20021;-76
2023/03/02 02:50:30;;;;;;;62.67;34.35;;;;;;;-1.98;83.82;100448.31;5054258;28;20025;-77
2023/03/02 02:53:11;;;;;;;64.45;34.30;;;;;;;-1.95;84.33;100453.44;5053620;28;20082;-76
2023/03/02 02:55:38;;;;;;;65.05;34.45;;;;;;;-1.78;84.79;100474.16;5053762;28;20052;-76
2023/03/02 02:58:18;;;;;;;62.25;33.13;;;;;;;-1.89;84.97;100456.13;5053383;28;20113;-77
2023/03/02 03:00:44;;;;;;;62.83;31.13;;;;;;;-1.93;85.16;100446.69;5053602;28;20032;-76
2023/03/02 03:03:28;;;;;;;54.28;29.30;;;;;;;-1.80;85.09;100474.13;5053448;28;20033;-77
2023/03/02 03:05:54;;;;;;;52.38;27.58;;;;;;;-1.81;85.97;100466.47;5053503;28;20465;-77
2023/03/02 03:08:45;;;;;;;51.20;28.25;;;;;;;-1.82;85.67;100475.78;5053340;28;20036;-77
2023/03/02 03:11:12;;;;;;;48.85;26.67;;;;;;;-1.84;86.06;100462.16;5053152;28;20108;-76
2023/03/02 03:13:38;;;;;;;48.13;27.67;;;;;;;-2.01;86.18;100430.38;5053328;28;20025;-76
2023/03/02 03:16:07;;;;;;;51.90;28.48;;;;;;;-1.88;85.90;100451.88;5052891;28;20028;-77
2023/03/02 03:18:32;;;;;;;46.30;26.90;;;;;;;-1.87;85.50;100451.03;5053201;28;20036;-76
2023/03/02 03:20:58;;;;;;;48.03;26.73;;;;;;;-1.82;85.11;100459.59;5053386;28;20047;-76
2023/03/02 03:23:23;;;;;;;48.63;27.20;;;;;;;-1.81;85.08;100461.34;5053316;28;20415;-76
2023/03/02 03:25:49;;;;;;;52.38;27.35;;;;;;;-1.80;85.45;100458.81;5053021;28;20495;-76
2023/03/02 03:28:14;;;;;;;45.42;25.77;;;;;;;-1.77;85.89;100451.22;5053161;28;20032;-76
2023/03/02 03:30:40;;;;;;;47.75;27.15;;;;;;;-2.06;85.21;100402.22;5053089;28;20040;-76
2023/03/02 03:33:05;;;;;;;46.13;25.45;;;;;;;-1.78;84.96;100451.16;5052640;28;20091;-76
2023/03/02 03:35:30;;;;;;;51.85;28.85;;;;;;;-1.80;85.59;100451.16;5053107;28;20025;-77
2023/03/02 03:37:56;;;;;;;49.55;26.77;;;;;;;-1.96;85.94;100422.78;5052782;28;20227;-77
2023/03/02 03:40:21;;;;;;;47.95;26.88;;;;;;;-1.97;85.43;100419.38;5052577;28;20044;-76
2023/03/02 03:42:47;;;;;;;49.67;28.65;;;;;;;-1.94;85.08;100421.97;5052869;28;20021;-77
2023/03/02 03:45:12;;;;;;;62.42;32.33;;;;;;;-1.77;85.16;100452.88;5052522;28;20029;-76
2023/03/02 03:47:38;;;;;;;57.88;31.23;;;;;;;-1.85;85.04;100436.59;5052399;28;20029;-76
2023/03/02 03:50:03;;;;;;;59.65;31.42;;;;;;;-1.94;85.14;100410.91;5052551;28;20515;-76
2023/03/02 03:52:32;;;;;;;59.33;32.33;;;;;;;-1.79;85.12;100444.34;5051387;28;20031;-77
2023/03/02 03:54:59;;;;;;;68.88;37.38;;;;;;;-1.81;84.53;100452.00;5052885;28;20017;-76
2023/03/02 03:57:26;;;;;;;69.90;39.67;;;;;;;-1.91;85.66;100446.69;5052447;28;20508;-76
2023/03/02 03:59:51;;;;;;;72.53;40.35;;;;;;;-2.18;85.97;100417.31;5052380;28;20036;-76
2023/03/02 04:02:17;;;;;;;70.07;39.97;;;;;;;-2.03;85.64;100443.09;5052212;28;20017;-76
2023/03/02 04:04:42;;;;;;;73.43;41.10;;;;;;;-2.19;85.66;100420.72;5052673;28;20429;-76
2023/03/02 04:07:08;;;;;;;75.07;41.88;;;;;;;-2.26;85.79;100408.69;5052286;28;20025;-76
2023/03/02 04:09:36;;;;;;;75.47;39.65;;;;;;;-2.09;86.80;100447.25;5052276;28;20025;-76
2023/03/02 04:12:02;;;;;;;76.57;41.67;;;;;;;-2.23;86.93;100420.63;5052100;28;20021;-76
2023/03/02 04:14:28;;;;;;;71.13;39.13;;;;;;;-2.06;86.82;100440.50;5052113;28;20025;-76
2023/03/02 04:16:53;;;;;;;82.53;40.47;;;;;;;-2.08;86.84;100434.50;5052081;28;20033;-76
2023/03/02 04:19:20;;;;;;;82.22;41.65;;;;;;;-2.04;86.80;100441.38;5052230;28;20025;-76
2023/03/02 04:21:48;;;;;;;82.78;42.80;;;;;;;-2.22;87.67;100407.03;5052205;28;20051;-76
2023/03/02 04:24:15;;;;;;;78.55;41.63;;;;;;;-2.03;87.64;100432.88;5051542;28;20033;-76
2023/03/02 04:26:42;;;;;;;74.03;39.60;;;;;;;-2.17;87.46;100406.28;5052050;28;20029;-76
2023/03/02 04:29:08;;;;;;;67.43;36.47;;;;;;;-2.06;87.37;100426.91;5051645;28;20481;-76
2023/03/02 04:31:34;;;;;;;72.18;37.17;;;;;;;-2.04;87.38;100427.75;5051902;28;20488;-76
2023/03/02 04:33:59;;;;;;;75.90;37.80;;;;;;;-2.12;87.38;100407.22;5051888;28;20057;-76
2023/03/02 04:36:25;;;;;;;66.32;36.75;;;;;;;-2.00;87.10;100419.31;5051687;28;20475;-76
2023/03/02 04:38:51;;;;;;;62.90;34.90;;;;;;;-1.93;86.65;100420.28;5051950;28;20111;-76
2023/03/02 04:41:18;;;;;;;67.07;35.58;;;;;;;-2.04;85.70;100404.78;5051636;28;20547;-77
2023/03/02 04:43:44;;;;;;;76.65;43.42;;;;;;;-1.90;86.10;100433.94;5051764;28;20112;-76
2023/03/02 04:46:14;;;;;;;65.20;34.38;;;;;;;-2.02;86.30;100398.03;5051502;28;20104;-76
2023/03/02 04:48:39;;;;;;;60.63;35.08;;;;;;;-1.88;86.07;100426.34;5051794;28;20128;-76
2023/03/02 04:51:05;;;;;;;60.00;33.22;;;;;;;-1.93;86.47;100416.03;5050895;28;20512;-76
2023/03/02 04:53:30;;;;;;;62.53;35.95;;;;;;;-2.09;85.80;100394.50;5051702;28;20115;-77
2023/03/02 04:55:55;;;;;;;64.28;37.05;;;;;;;-1.93;86.02;100431.38;5051491;28;20522;-76
2023/03/02 04:58:21;;;;;;;67.90;36.20;;;;;;;-2.08;85.23;100410.69;5051206;28;20534;-76
2023/03/02 05:00:46;;;;;;;69.00;40.17;;;;;;;-2.15;85.49;100403.75;5051732;28;20402;-76
2023/03/02 05:03:11;;;;;;;79.07;42.35;;;;;;;-2.03;85.70;100432.88;5051614;28;20122;-77
2023/03/02 05:05:37;;;;;;;146.93;60.42;;;;;;;-2.05;85.61;100433.72;5051580;28;20112;-76
2023/03/02 05:08:02;;;;;;;114.50;49.00;;;;;;;-2.23;85.94;100398.53;5051597;28;20071;-76
2023/03/02 05:10:28;;;;;;;75.80;35.67;;;;;;;-2.37;86.88;100408.47;5051382;28;20071;-76
2023/03/02 05:12:57;;;;;;;59.75;33.70;;;;;;;-2.20;87.08;100433.44;5051504;28;20476;-76
2023/03/02 05:15:35;;;;;;;63.88;35.70;;;;;;;-2.25;86.79;100428.25;5050152;28;20422;-76
2023/03/02 05:18:02;;;;;;;78.40;39.95;;;;;;;-2.20;86.09;100433.44;5051569;28;20029;-75
2023/03/02 05:20:29;;;;;;;71.57;37.53;;;;;;;-2.22;86.87;100432.56;5051470;28;20036;-76
2023/03/02 05:23:00;;;;;;;71.78;38.35;;;;;;;-2.23;86.58;100430.81;5051524;28;20033;-76
2023/03/02 05:25:27;;;;;;;72.97;38.42;;;;;;;-2.34;86.42;100412.78;5051325;28;20448;-76
2023/03/02 05:27:53;;;;;;;96.35;43.85;;;;;;;-2.20;86.08;100436.84;5051292;28;20032;-76
2023/03/02 05:30:19;;;;;;;95.25;45.13;;;;;;;-2.36;86.04;100406.78;5051193;28;20381;-76
2023/03/02 05:32:45;;;;;;;91.35;47.05;;;;;;;-2.25;85.95;100425.69;5051333;28;20427;-76
2023/03/02 05:35:11;;;;;;;97.90;52.28;;;;;;;-2.26;85.58;100429.09;5051219;28;20086;-76
2023/03/02 05:37:40;;;;;;;101.88;50.80;;;;;;;-2.37;85.61;100399.97;5051160;28;20037;-76
2023/03/02 05:40:07;;;;;;;101.40;51.17;;;;;;;-2.20;86.16;100436.84;5050777;28;20021;-76
2023/03/02 05:42:34;;;;;;;82.90;44.65;;;;;;;-2.28;86.80;100425.63;5051452;28;20029;-76
2023/03/02 05:45:00;;;;;;;108.57;52.05;;;;;;;-2.37;86.76;100407.63;5051638;28;20556;-76
2023/03/02 05:47:25;;;;;;;124.82;57.03;;;;;;;-2.32;87.16;100413.66;5051002;28;20043;-76
2023/03/02 05:49:51;;;;;;;108.97;52.78;;;;;;;-2.38;87.22;100403.34;5051283;28;20040;-76
2023/03/02 05:52:16;;;;;;;89.57;47.95;;;;;;;-2.28;87.22;100421.41;5050942;28;20029;-76
2023/03/02 05:54:41;;;;;;;97.28;48.67;;;;;;;-2.13;87.01;100438.69;5051070;28;20051;-76
2023/03/02 05:57:07;;;;;;;109.78;52.13;;;;;;;-2.22;86.46;100418.09;5051100;28;20092;-76
2023/03/02 05:59:32;;;;;;;109.25;51.67;;;;;;;-2.02;86.35;100438.88;5051274;28;20024;-76
2023/03/02 06:01:58;;;;;;;78.25;42.35;;;;;;;-2.00;86.89;100444.84;5051404;28;20377;-76
2023/03/02 06:04:24;;;;;;;81.72;41.40;;;;;;;-2.12;87.47;100417.41;5054418;28;20392;-75
2023/03/02 06:06:49;;;;;;;81.80;42.35;;;;;;;-2.02;86.94;100421.00;5054504;28;20151;-75
2023/03/02 06:09:15;;;;;;;86.30;44.88;;;;;;;-1.87;86.62;100422.94;5054265;28;20115;-75
2023/03/02 06:11:40;;;;;;;86.65;45.80;;;;;;;-1.58;86.63;100454.03;5054703;28;20032;-75
2023/03/02 06:14:05;;;;;;;83.18;43.22;;;;;;;-1.59;86.47;100426.78;5054743;28;20025;-76
2023/03/02 06:16:32;;;;;;;83.50;44.17;;;;;;;-1.37;86.09;100418.59;5054113;28;20029;-76
2023/03/02 06:18:57;;;;;;;88.38;44.00;;;;;;;-0.82;85.80;100451.69;5054488;28;20025;-75
2023/03/02 06:21:23;;;;;;;88.95;45.92;;;;;;;-0.68;83.88;100390.44;5054086;28;20373;-76
2023/03/02 06:23:48;;;;;;;74.10;40.58;;;;;;;0.06;82.57;100446.66;5054170;28;20021;-76
2023/03/02 06:26:13;;;;;;;86.15;42.40;;;;;;;0.36;80.94;100432.38;5054298;28;20053;-75
2023/03/02 06:28:39;;;;;;;82.85;44.03;;;;;;;0.68;80.33;100425.75;5054348;28;20123;-75
2023/03/02 06:31:04;;;;;;;76.20;40.55;;;;;;;1.09;79.22;100448.19;5054387;28;20025;-75
2023/03/02 06:33:30;;;;;;;75.43;40.72;;;;;;;1.46;78.63;100446.63;5054034;28;20117;-75
2023/03/02 06:35:56;;;;;;;75.95;40.85;;;;;;;1.83;77.42;100443.28;5054153;28;20059;-75
2023/03/02 06:38:21;;;;;;;79.10;40.78;;;;;;;2.20;76.16;100449.31;5053683;28;20536;-75
2023/03/02 06:40:46;;;;;;;72.80;41.25;;;;;;;2.53;75.53;100424.44;5053885;28;20507;-75
2023/03/02 06:43:12;;;;;;;74.70;41.10;;;;;;;3.12;74.01;100454.31;5054091;28;20033;-75
2023/03/02 06:45:37;;;;;;;79.85;41.35;;;;;;;3.26;72.87;100416.50;5053948;28;20369;-75
2023/03/02 06:48:04;;;;;;;81.38;39.42;;;;;;;3.59;71.98;100450.69;5053810;28;20029;-75
2023/03/02 06:50:29;;;;;;;79.70;40.03;;;;;;;3.81;71.69;100461.72;5053573;28;20025;-75
2023/03/02 06:52:55;;;;;;;69.18;39.63;;;;;;;4.20;70.91;100456.28;5053862;28;20032;-75
2023/03/02 06:55:20;;;;;;;68.55;39.13;;;;;;;4.48;69.81;100453.50;5053511;28;20380;-75
2023/03/02 06:57:46;;;;;;;66.13;36.50;;;;;;;4.72;69.62;100448.09;5053813;28;20029;-75
2023/03/02 07:00:15;;;;;;;62.80;37.38;;;;;;;4.91;69.01;100430.69;5053552;28;20066;-75
2023/03/02 07:02:41;;;;;;;57.33;35.30;;;;;;;5.06;67.55;100406.44;5053538;28;20106;-75
2023/03/02 07:05:06;;;;;;;64.97;38.88;;;;;;;5.67;66.53;100444.38;5053849;28;20476;-75
2023/03/02 07:07:32;;;;;;;71.05;38.92;;;;;;;5.78;65.46;100409.78;5053282;28;20025;-75
2023/03/02 07:09:57;;;;;;;58.28;35.20;;;;;;;6.34;64.79;100434.78;5053552;28;20100;-75
2023/03/02 07:12:23;;;;;;;59.45;33.95;;;;;;;6.48;63.79;100409.50;5053280;28;20152;-75
2023/03/02 07:14:49;;;;;;;54.08;33.30;;;;;;;7.04;63.00;100432.66;5052900;28;20078;-75
2023/03/02 07:17:14;;;;;;;58.63;33.80;;;;;;;7.29;61.68;100412.28;5053457;28;20120;-75
2023/03/02 07:19:39;;;;;;;60.10;36.67;;;;;;;7.75;61.13;100427.69;5053208;28;20130;-75
2023/03/02 07:22:05;;;;;;;72.15;43.00;;;;;;;8.02;60.52;100427.09;5053168;28;20033;-75
2023/03/02 07:24:31;;;;;;;75.10;48.50;;;;;;;8.23;59.79;100418.78;5052868;28;20044;-75
2023/03/02 07:26:56;;;;;;;68.70;42.92;;;;;;;8.41;58.11;100401.91;5053211;28;20029;-75
2023/03/02 07:29:22;;;;;;;57.10;37.80;;;;;;;8.73;57.33;100424.44;5052879;28;20031;-75
2023/03/02 07:31:47;;;;;;;41.50;28.92;;;;;;;8.45;54.72;100416.53;5052936;28;20021;-73
2023/03/02 07:34:14;;;;;;;47.60;29.35;;;;;;;8.73;55.35;100427.06;5052873;28;20025;-73
2023/03/02 07:36:39;;;;;;;41.70;25.10;;;;;;;8.73;54.15;100404.53;5052916;28;20078;-73
2023/03/02 07:39:05;;;;;;;67.68;32.08;;;;;;;8.83;52.94;100397.31;5053073;28;20481;-73
2023/03/02 07:41:30;;;;;;;52.53;30.42;;;;;;;8.88;52.45;100402.38;5052647;28;20074;-73
2023/03/02 07:43:55;;;;;;;41.22;26.98;;;;;;;8.83;52.01;100420.69;5052875;28;20488;-73
2023/03/02 07:46:21;;;;;;;71.47;40.83;;;;;;;8.80;51.88;100423.38;5052567;28;20056;-73
2023/03/02 07:48:46;;;;;;;42.28;25.25;;;;;;;9.22;51.27;100418.72;5052678;28;20059;-73
2023/03/02 07:51:11;;;;;;;42.25;26.98;;;;;;;9.48;49.96;100401.50;5052602;28;20029;-73
2023/03/02 07:53:36;;;;;;;45.42;28.60;;;;;;;9.18;50.23;100409.31;5052879;28;20063;-73
2023/03/02 07:56:10;;;;;;;38.50;23.20;;;;;;;9.11;50.39;100427.75;5052743;28;20458;-73
2023/03/02 07:58:35;;;;;;;40.30;24.23;;;;;;;8.60;50.85;100408.34;5052350;28;20070;-73
2023/03/02 08:01:01;;;;;;;32.60;20.77;;;;;;;8.36;51.61;100434.91;5052858;28;20481;-73
2023/03/02 08:03:26;;;;;;;35.67;21.65;;;;;;;8.16;52.26;100393.84;5052197;28;20040;-74
2023/03/02 08:05:51;;;;;;;41.88;25.65;;;;;;;7.84;51.83;100392.06;5052205;28;20610;-73
2023/03/02 08:08:17;;;;;;;34.78;24.88;;;;;;;8.06;52.49;100413.16;5052023;28;20046;-73
2023/03/02 08:10:42;;;;;;;57.13;44.95;;;;;;;8.02;52.53;100408.91;5052526;28;20029;-73
2023/03/02 08:13:07;;;;;;;49.33;35.33;;;;;;;8.19;52.67;100430.97;5052237;28;20380;-73
2023/03/02 08:15:33;;;;;;;31.33;20.88;;;;;;;7.74;53.90;100430.28;5052052;28;20028;-73
2023/03/02 08:17:58;;;;;;;32.67;20.90;;;;;;;7.10;54.75;100423.91;5052272;28;20509;-73
2023/03/02 08:20:24;;;;;;;30.58;20.48;;;;;;;7.13;55.43;100416.91;5051935;28;20038;-73
2023/03/02 08:22:50;;;;;;;32.50;20.05;;;;;;;7.16;56.09;100422.06;5051990;28;20643;-73
2023/03/02 08:25:16;;;;;;;34.38;21.67;;;;;;;7.01;56.40;100427.53;5051308;28;20053;-73
2023/03/02 08:27:42;;;;;;;36.40;21.25;;;;;;;7.14;56.63;100426.38;5051876;28;20031;-73
2023/03/02 08:30:09;;;;;;;30.88;20.25;;;;;;;7.64;56.04;100411.50;5052135;28;20029;-73
2023/03/02 08:32:34;;;;;;;37.40;24.08;;;;;;;7.63;55.75;100417.59;5051883;28;20249;-73
2023/03/02 08:35:00;;;;;;;40.20;25.17;;;;;;;7.55;55.65;100436.78;5051936;28;20195;-73
2023/03/02 08:37:25;;;;;;;53.97;39.22;;;;;;;7.63;56.33;100415.00;5051891;28;20094;-73
2023/03/02 08:39:50;;;;;;;38.92;27.55;;;;;;;7.75;55.98;100409.53;5051961;28;20079;-74
2023/03/02 08:42:16;;;;;;;43.03;28.00;;;;;;;7.83;56.21;100435.28;5050260;28;20021;-74
2023/03/02 08:44:42;;;;;;;33.95;22.30;;;;;;;7.79;56.21;100420.66;5039579;28;20025;-74
2023/03/02 08:47:07;;;;;;;102.50;74.88;;;;;;;7.65;56.45;100420.97;5040979;28;20021;-75
2023/03/02 08:49:32;;;;;;;38.33;22.75;;;;;;;7.46;56.28;100405.00;5040356;28;20068;-75
2023/03/02 08:51:58;;;;;;;39.20;27.25;;;;;;;7.58;56.46;100400.41;5039891;28;20020;-75
2023/03/02 08:54:24;;;;;;;35.92;25.38;;;;;;;7.56;56.85;100397.88;5041407;28;20052;-75
2023/03/02 08:56:49;;;;;;;34.70;21.52;;;;;;;7.52;56.30;100393.63;5040362;28;20045;-75
2023/03/02 08:59:15;;;;;;;89.95;46.20;;;;;;;7.41;56.79;100406.81;5040202;28;20033;-75
2023/03/02 09:01:41;;;;;;;39.65;24.98;;;;;;;7.38;56.78;100408.66;5041133;28;20681;-75
2023/03/02 09:04:08;;;;;;;49.33;32.67;;;;;;;7.43;56.81;100386.06;5039520;28;20100;-75
2023/03/02 09:06:36;;;;;;;52.88;39.58;;;;;;;7.54;56.62;100410.00;5039903;28;20063;-75
2023/03/02 09:09:02;;;;;;;38.50;24.70;;;;;;;7.49;56.20;100414.44;5041442;28;20025;-74
2023/03/02 09:11:28;;;;;;;32.88;20.83;;;;;;;7.19;56.90;100413.34;5039493;28;20021;-75
2023/03/02 09:13:55;;;;;;;35.95;20.27;;;;;;;7.05;56.87;100399.81;5040184;28;20396;-75
2023/03/02 09:16:22;;;;;;;42.15;30.50;;;;;;;7.08;57.09;100402.34;5040937;28;20061;-75
2023/03/02 09:18:48;;;;;;;35.90;22.90;;;;;;;6.79;57.25;100369.28;5039584;28;20026;-74
2023/03/02 09:21:14;;;;;;;37.08;25.92;;;;;;;7.01;57.81;100406.81;5040205;28;20380;-75
2023/03/02 09:23:39;;;;;;;38.80;22.85;;;;;;;7.00;57.51;100387.81;5041130;28;20048;-75
2023/03/02 09:26:05;;;;;;;34.95;23.85;;;;;;;7.17;57.75;100394.41;5045036;28;20385;-74
2023/03/02 09:28:31;;;;;;;68.45;39.33;;;;;;;7.09;59.68;100388.53;5051189;28;20028;-75
2023/03/02 09:30:58;;;;;;;59.80;41.83;;;;;;;7.04;59.56;100377.38;5051352;28;20049;-75
2023/03/02 09:33:24;;;;;;;58.83;36.47;;;;;;;6.98;60.92;100363.69;5051059;28;20029;-75
2023/03/02 09:35:49;;;;;;;65.25;40.10;;;;;;;7.01;60.71;100375.72;5051597;28;20025;-75
2023/03/02 09:38:17;;;;;;;62.28;38.95;;;;;;;6.97;61.74;100376.66;5055552;28;20027;-75
2023/03/02 09:40:48;;;;;;;59.83;38.35;;;;;;;7.17;61.83;100387.47;5055087;28;20388;-75
2023/03/02 09:43:29;;;;;;;;;;;;;;;7.23;62.42;100389.94;5055739;28;20025;-75
2023/03/02 09:46:01;;;;;;;58.67;37.75;;;;;;;7.32;62.42;100391.47;5055003;28;19954;-74
2023/03/02 09:48:51;;;;;;;60.38;34.17;;;;;;;7.29;62.45;100391.56;5054838;28;20035;-74
2023/03/02 09:51:34;;;;;;;58.05;32.38;;;;;;;7.12;62.04;100389.31;5055125;28;20029;-75
2023/03/02 09:54:09;;;;;;;55.10;35.00;;;;;;;6.90;62.41;100377.66;5054912;28;20032;-74
2023/03/02 09:56:38;;;;;;;61.47;37.83;;;;;;;7.00;63.94;100386.97;5054774;28;20024;-75
2023/03/02 09:59:22;;;;;;;69.63;36.88;;;;;;;6.96;63.04;100395.69;5055462;28;20036;-75
2023/03/02 10:02:00;;;;;;;60.67;36.92;;;;;;;6.81;62.78;100345.03;5054672;28;20021;-75
2023/03/02 10:04:35;;;;;;;55.25;34.78;;;;;;;7.05;62.87;100368.75;5054552;28;20112;-75
2023/03/02 10:07:11;;;;;;;55.63;33.33;;;;;;;6.91;62.35;100361.22;5054671;28;20033;-75
2023/03/02 10:09:37;;;;;;;60.67;38.33;;;;;;;7.12;62.01;100372.91;5054825;28;20037;-75
2023/03/02 10:12:24;;;;;;;57.70;36.92;;;;;;;7.11;62.29;100381.56;5054801;28;20079;-75
2023/03/02 10:15:01;;;;;;;61.10;39.78;;;;;;;7.13;62.54;100375.47;5054514;28;20029;-75
2023/03/02 10:17:50;;;;;;;59.28;36.75;;;;;;;7.27;62.61;100382.09;5054405;28;20033;-75
2023/03/02 10:20:28;;;;;;;60.72;37.67;;;;;;;6.91;61.97;100356.94;5054618;28;20098;-74
2023/03/02 10:23:25;;;;;;;60.33;37.63;;;;;;;7.09;62.61;100372.97;5054423;28;20040;-75
2023/03/02 10:26:08;;;;;;;54.67;34.47;;;;;;;6.85;62.50;100344.09;5031806;28;20050;-75
2023/03/02 10:28:43;;;;;;;51.88;34.65;;;;;;;6.92;63.02;100337.91;5031691;28;20208;-75
2023/03/02 10:31:21;;;;;;;101.22;63.88;;;;;;;7.14;62.87;100359.03;5031906;28;20053;-75
2023/03/02 10:33:47;;;;;;;76.53;47.42;;;;;;;7.27;62.49;100366.56;5032096;28;20033;-75
2023/03/02 10:36:42;;;;;;;58.13;38.28;;;;;;;7.23;62.17;100351.06;5031550;28;20045;-75
2023/03/02 10:39:16;;;;;;;67.53;46.38;;;;;;;7.35;62.17;100349.94;4953361;29;20039;-75
2023/03/02 10:41:57;;;;;;;51.63;35.28;;;;;;;7.41;61.59;100356.72;4953271;29;20124;-75
2023/03/02 10:44:36;;;;;;;55.10;38.83;;;;;;;7.50;61.47;100359.97;4953354;28;20518;-75
2023/03/02 10:47:03;;;;;;;52.53;36.25;;;;;;;7.56;61.41;100351.19;4953487;29;20027;-75
2023/03/02 10:49:29;;;;;;;45.85;31.15;;;;;;;7.57;61.57;100352.91;4952395;28;20070;-75
2023/03/02 10:52:11;;;;;;;47.83;31.42;;;;;;;7.52;61.64;100340.94;4953249;29;20042;-76
2023/03/02 10:54:37;;;;;;;45.97;29.63;;;;;;;7.45;60.89;100322.06;4953111;28;20031;-75
2023/03/02 10:57:18;;;;;;;47.28;26.80;;;;;;;7.46;60.82;100353.16;4953298;29;20098;-75
2023/03/02 10:59:45;;;;;;;53.92;34.90;;;;;;;7.28;61.08;100326.78;4953115;29;20051;-75
2023/03/02 11:02:10;;;;;;;47.17;31.67;;;;;;;7.53;61.94;100348.66;4963131;28;20279;-75
2023/03/02 11:04:36;;;;;;;42.13;28.27;;;;;;;7.55;61.69;100341.72;4991720;28;20038;-75
2023/03/02 11:07:16;;;;;;;42.65;28.02;;;;;;;7.58;62.12;100345.97;4991581;28;20033;-75
2023/03/02 11:09:53;;;;;;;44.00;29.30;;;;;;;7.42;62.56;100317.84;4991463;28;20104;-75
2023/03/02 11:12:19;;;;;;;43.08;28.77;;;;;;;7.57;62.80;100315.75;4991794;28;20599;-75
2023/03/02 11:14:44;;;;;;;53.95;29.75;;;;;;;7.40;62.46;100301.44;4993316;28;20114;-75
2023/03/02 11:17:33;;;;;;;46.00;28.50;;;;;;;7.54;62.93;100326.19;5053685;28;20025;-75